Time;durP1;ratioP1;P1;durP2;ratioP2;P2;SDS_P1;SDS_P2;PMS_P1;PMS_P2;Temp;Humidity;BMP_temperature;BMP_pressure;BME280_temperature;BME280_humidity;BME280_pressure;Samples;Min_cycle;Max_cycle;Signal;HPM_P1;HPM_P2
2023/07/25 00:00:23;;;;;;;;;;;;;;;28.63;34.75;100327.44;5097885;28;1971;-29
2023/07/25 00:02:49;;;;;;;;;;;;;;;28.66;34.49;100335.97;5097684;28;1458;-33
2023/07/25 00:05:14;;;;;;;;;;;;;;;28.61;34.47;100335.75;5097799;28;1320;-33
2023/07/25 00:07:40;;;;;;;;;;;;;;;28.64;34.43;100329.94;5097677;28;1328;-31
2023/07/25 00:10:06;;;;;;;;;;;;;;;28.63;34.78;100328.25;5098010;28;1332;-30
2023/07/25 00:12:31;;;;;;;;;;;;;;;28.60;34.70;100318.69;5097805;28;1300;-30
2023/07/25 00:14:57;;;;;;;;;;;;;;;28.58;34.25;100317.19;5097114;28;1328;-30
2023/07/25 00:17:22;;;;;;;;;;;;;;;28.59;34.61;100314.28;5097243;28;2562;-35
2023/07/25 00:19:48;;;;;;;;;;;;;;;28.63;34.56;100317.44;5075828;28;1909;-31
2023/07/25 00:22:13;;;;;;;;;;;;;;;28.57;34.99;100310.97;5077639;28;1319;-33
2023/07/25 00:24:39;;;;;;;;;;;;;;;28.54;34.54;100316.78;5076849;28;1284;-31
2023/07/25 00:27:04;;;;;;;;;;;;;;;28.47;34.87;100313.22;5074666;28;1411;-36
2023/07/25 00:29:30;;;;;;;;;;;;;;;28.54;34.84;100305.13;5075735;28;1575;-31
2023/07/25 00:31:55;;;;;;;;;;;;;;;28.53;34.64;100298.88;5076691;28;1284;-31
2023/07/25 00:34:20;;;;;;;;;;;;;;;28.48;34.51;100299.50;5077062;28;1324;-33
2023/07/25 00:36:46;;;;;;;;;;;;;;;28.47;34.81;100300.53;5074297;28;1204;-30
2023/07/25 00:39:11;;;;;;;;;;;;;;;28.55;34.55;100296.81;5076856;28;1902;-34
2023/07/25 00:41:37;;;;;;;;;;;;;;;28.63;34.38;100290.38;5076636;28;987;-34
2023/07/25 00:44:02;;;;;;;;;;;;;;;28.64;34.16;100291.22;5075440;28;1174;-36
2023/07/25 00:46:28;;;;;;;;;;;;;;;28.57;34.50;100296.59;5071940;28;2625;-31
2023/07/25 00:48:53;;;;;;;;;;;;;;;28.57;34.88;100296.59;5076944;28;1014;-32
2023/07/25 00:51:19;;;;;;;;;;;;;;;28.51;34.08;100297.44;5070705;28;1094;-32
2023/07/25 00:53:44;;;;;;;;;;;;;;;28.57;34.54;100304.72;5071291;28;1135;-29
2023/07/25 00:56:10;;;;;;;;;;;;;;;28.59;35.00;100300.75;5076824;28;1054;-36
2023/07/25 00:58:35;;;;;;;;;;;;;;;28.53;34.53;100295.34;5075425;28;1960;-28
2023/07/25 01:01:05;;;;;;;;;;;;;;;28.54;34.64;100289.75;5075474;28;1170;-36
2023/07/25 01:03:34;;;;;;;;;;;;;;;28.56;34.33;100293.06;5070415;28;1289;-35
2023/07/25 01:06:03;;;;;;;;;;;;;;;28.52;35.07;100293.66;5076518;28;1098;-31
2023/07/25 01:08:28;;;;;;;;;;;;;;;28.52;34.49;100291.81;5077048;28;1034;-35
2023/07/25 01:10:54;;;;;;;;;;;;;;;28.48;34.58;100291.38;5076498;28;1003;-36
2023/07/25 01:13:20;;;;;;;;;;;;;;;28.50;34.89;100293.03;5076666;28;1018;-34
2023/07/25 01:15:45;;;;;;;;;;;;;;;28.51;34.73;100290.13;5075434;28;2217;-30
2023/07/25 01:18:11;;;;;;;;;;;;;;;28.51;34.55;100292.00;5076697;28;1925;-35
2023/07/25 01:20:37;;;;;;;;;;;;;;;28.42;34.45;100299.47;5078620;28;1389;-31
2023/07/25 01:23:02;;;;;;;;;;;;;;;28.48;34.45;100306.75;5061812;28;1121;-35
2023/07/25 01:25:28;;;;;;;;;;;;;;;28.51;34.29;100295.53;5077999;28;1126;-36
2023/07/25 01:27:53;;;;;;;;;;;;;;;28.47;34.49;100289.72;5096362;28;1029;-33
2023/07/25 01:30:19;;;;;;;;;;;;;;;28.44;34.51;100292.84;5095843;28;1039;-33
2023/07/25 01:32:44;;;;;;;;;;;;;;;28.45;34.10;100296.34;5078144;28;1075;-35
2023/07/25 01:35:10;;;;;;;;;;;;;;;28.42;34.46;100304.88;5078059;28;1205;-35
2023/07/25 01:37:35;;;;;;;;;;;;;;;28.46;35.13;100311.56;5096529;28;1018;-35
2023/07/25 01:40:01;;;;;;;;;;;;;;;28.40;34.18;100306.94;5095707;28;1905;-35
2023/07/25 01:42:27;;;;;;;;;;;;;;;28.47;35.22;100305.94;5096314;28;991;-36
2023/07/25 01:44:52;;;;;;;;;;;;;;;28.54;34.42;100305.13;5096149;28;1137;-34
2023/07/25 01:47:18;;;;;;;;;;;;;;;28.42;34.46;100297.59;5096242;28;2486;-33
2023/07/25 01:49:44;;;;;;;;;;;;;;;28.53;34.82;100300.78;5064173;28;1047;-31
2023/07/25 01:52:09;;;;;;;;;;;;;;;28.58;34.42;100301.81;5077249;28;1091;-36
2023/07/25 01:54:35;;;;;;;;;;;;;;;28.46;34.87;100300.75;5077899;28;1299;-29
2023/07/25 01:57:00;;;;;;;;;;;;;;;27.90;34.65;100211.47;5077778;28;1066;-31
2023/07/25 01:59:26;;;;;;;;;;;;;;;28.60;34.68;100309.72;5077720;28;1909;-33
2023/07/25 02:01:52;;;;;;;;;;;;;;;28.50;34.58;100318.22;5096060;28;1133;-32
2023/07/25 02:04:18;;;;;;;;;;;;;;;28.53;34.48;100314.31;5095742;28;1162;-31
2023/07/25 02:06:43;;;;;;;;;;;;;;;28.51;34.29;100319.88;5096026;28;1197;-36
2023/07/25 02:09:09;;;;;;;;;;;;;;;28.48;34.37;100314.88;5077635;28;1192;-35
2023/07/25 02:11:34;;;;;;;;;;;;;;;28.51;34.73;100311.75;5077757;28;1092;-35
2023/07/25 02:14:00;;;;;;;;;;;;;;;28.40;34.31;100307.78;5077428;28;1133;-30
2023/07/25 02:16:25;;;;;;;;;;;;;;;28.50;34.57;100309.25;5077055;28;2305;-32
2023/07/25 02:18:51;;;;;;;;;;;;;;;28.53;34.36;100315.09;5077531;28;1909;-35
2023/07/25 02:21:16;;;;;;;;;;;;;;;28.40;34.15;100313.19;5077766;28;1225;-34
2023/07/25 02:23:42;;;;;;;;;;;;;;;28.47;34.42;100307.81;5077538;28;1106;-36
2023/07/25 02:26:07;;;;;;;;;;;;;;;28.49;35.19;100305.75;5077742;28;1106;-30
2023/07/25 02:28:33;;;;;;;;;;;;;;;28.44;34.88;100314.47;5095121;28;1162;-31
2023/07/25 02:30:58;;;;;;;;;;;;;;;28.47;34.61;100314.06;5095641;28;1034;-36
2023/07/25 02:33:24;;;;;;;;;;;;;;;28.46;34.50;100317.78;5077195;28;1245;-30
2023/07/25 02:35:49;;;;;;;;;;;;;;;28.38;34.71;100319.88;5095743;28;1073;-30
2023/07/25 02:38:15;;;;;;;;;;;;;;;28.48;34.78;100321.13;5095301;28;1905;-28
2023/07/25 02:40:43;;;;;;;;;;;;;;;28.44;34.57;100317.19;5095448;28;1010;-33
2023/07/25 02:43:09;;;;;;;;;;;;;;;28.44;34.44;100316.34;5095360;28;1042;-29
2023/07/25 02:45:34;;;;;;;;;;;;;;;28.52;35.01;100301.78;5071754;28;2357;-36
2023/07/25 02:48:00;;;;;;;;;;;;;;;28.33;34.53;100302.34;5075656;28;1175;-29
2023/07/25 02:50:25;;;;;;;;;;;;;;;28.48;34.80;100298.66;5077042;28;1038;-31
2023/07/25 02:52:51;;;;;;;;;;;;;;;28.51;34.46;100297.44;5094814;28;1078;-33
2023/07/25 02:55:18;;;;;;;;;;;;;;;28.36;34.21;100295.72;5095580;28;1042;-28
2023/07/25 02:57:43;;;;;;;;;;;;;;;28.39;34.64;100300.72;5094952;28;987;-30
2023/07/25 03:00:09;;;;;;;;;;;;;;;28.50;34.88;100291.16;5076866;28;1905;-31
2023/07/25 03:02:35;;;;;;;;;;;;;;;28.41;34.72;100289.69;5077419;28;1232;-32
2023/07/25 03:05:00;;;;;;;;;;;;;;;28.49;34.48;100286.81;5094962;28;1098;-36
2023/07/25 03:07:26;;;;;;;;;;;;;;;28.51;34.59;100278.50;5080756;28;1181;-33
2023/07/25 03:09:51;;;;;;;;;;;;;;;28.39;34.79;100289.91;5099449;28;1077;-31
2023/07/25 03:12:17;;;;;;;;;;;;;;;28.41;34.60;100301.31;5080557;28;1215;-35
2023/07/25 03:14:43;;;;;;;;;;;;;;;28.46;34.50;100298.84;5098799;28;1007;-30
2023/07/25 03:17:09;;;;;;;;;;;;;;;28.46;34.27;100298.03;5073682;28;2186;-34
2023/07/25 03:19:34;;;;;;;;;;;;;;;28.32;34.69;100287.13;5063580;28;1914;-34
2023/07/25 03:22:00;;;;;;;;;;;;;;;28.39;34.48;100295.31;5079926;28;1149;-36
2023/07/25 03:24:25;;;;;;;;;;;;;;;28.27;34.39;100300.44;5099395;28;1097;-33
2023/07/25 03:26:51;;;;;;;;;;;;;;;27.75;35.91;100290.81;5080818;28;1091;-34
2023/07/25 03:29:16;;;;;;;;;;;;;;;27.58;35.54;100290.25;5079950;28;849;-34
2023/07/25 03:31:42;;;;;;;;;;;;;;;27.85;35.75;100292.31;5098778;28;1138;-35
2023/07/25 03:34:07;;;;;;;;;;;;;;;28.01;35.58;100282.22;5098874;28;1166;-33
2023/07/25 03:36:33;;;;;;;;;;;;;;;27.45;41.33;100276.66;5098777;28;1078;-29
2023/07/25 03:38:58;;;;;;;;;;;;;;;27.31;40.36;100279.25;5098522;28;1901;-26
2023/07/25 03:41:24;;;;;;;;;;;;;;;27.45;40.51;100298.25;5098307;28;998;-28
2023/07/25 03:43:49;;;;;;;;;;;;;;;27.39;40.83;100302.59;5079652;28;1007;-28
2023/07/25 03:46:15;;;;;;;;;;;;;;;27.45;41.10;100306.38;5080004;28;1860;-28
2023/07/25 03:48:40;;;;;;;;;;;;;;;27.57;39.90;100303.97;5098433;28;1089;-31
2023/07/25 03:51:06;;;;;;;;;;;;;;;27.63;38.66;100298.59;5098413;28;1075;-31
2023/07/25 03:53:31;;;;;;;;;;;;;;;27.59;40.46;100310.81;5096134;28;1218;-29
2023/07/25 03:55:56;;;;;;;;;;;;;;;27.79;41.02;100312.03;5094759;28;901;-32
2023/07/25 03:58:22;;;;;;;;;;;;;;;27.81;42.90;100312.69;5075894;28;1898;-30
2023/07/25 04:00:47;;;;;;;;;;;;;;;27.50;45.02;100309.31;5079872;28;1106;-32
2023/07/25 04:03:13;;;;;;;;;;;;;;;27.06;43.41;100309.38;5058357;28;1237;-32
2023/07/25 04:05:39;;;;;;;;;;;;;;;24.48;46.60;100315.44;5073627;28;980;-27
2023/07/25 04:08:04;;;;;;;;;;;;;;;23.21;48.07;100318.53;5079387;28;1205;-30
2023/07/25 04:10:30;;;;;;;;;;;;;;;22.96;46.01;100305.09;5078531;28;1240;-25
2023/07/25 04:12:55;;;;;;;;;;;;;;;21.96;48.34;100307.41;5078989;28;1352;-21
2023/07/25 04:15:21;;;;;;;;;;;;;;;21.81;49.99;100306.31;5097690;28;1822;-22
2023/07/25 04:17:46;;;;;;;;;;;;;;;21.51;51.80;100310.13;5096959;28;1035;-20
2023/07/25 04:20:12;;;;;;;;;;;;;;;23.41;49.34;100301.28;5097723;28;1913;-21
2023/07/25 04:22:37;;;;;;;;;;;;;;;25.80;45.89;100306.59;5097693;28;1154;-22
2023/07/25 04:25:03;;;;;;;;;;;;;;;26.83;41.67;100302.28;5097694;28;1090;-21
2023/07/25 04:27:30;;;;;;;;;;;;;;;26.32;47.59;100311.22;5097699;28;1094;-21
2023/07/25 04:29:56;;;;;;;;;;;;;;;23.22;51.57;100298.72;5096275;28;1295;-22
2023/07/25 04:32:22;;;;;;;;;;;;;;;22.51;53.65;100293.75;5090667;28;1170;-21
2023/07/25 04:34:47;;;;;;;;;;;;;;;22.71;52.97;100296.16;5094639;28;1272;-24
2023/07/25 04:37:13;;;;;;;;;;;;;;;22.41;54.24;100293.88;5097683;28;1145;-21
2023/07/25 04:39:38;;;;;;;;;;;;;;;21.98;53.48;100291.19;5096858;28;1914;-20
2023/07/25 04:42:04;;;;;;;;;;;;;;;22.01;53.36;100297.06;5096919;28;866;-21
2023/07/25 04:44:29;;;;;;;;;;;;;;;23.51;50.74;100295.72;5097348;28;1042;-22
2023/07/25 04:46:55;;;;;;;;;;;;;;;25.88;45.25;100294.88;5088141;28;2644;-21
2023/07/25 04:49:20;;;;;;;;;;;;;;;26.67;44.34;100287.16;5078510;28;1406;-21
2023/07/25 04:51:46;;;;;;;;;;;;;;;26.76;47.31;100296.81;5094970;28;1384;-23
2023/07/25 04:54:11;;;;;;;;;;;;;;;22.97;52.26;100290.66;5078831;28;1020;-21
2023/07/25 04:56:40;;;;;;;;;;;;;;;22.75;53.65;100292.16;5078169;28;1357;-21
2023/07/25 04:59:05;;;;;;;;;;;;;;;23.07;53.12;100295.88;5090912;28;1905;-20
2023/07/25 05:01:31;;;;;;;;;;;;;;;22.65;54.24;100288.78;5091462;28;1375;-23
2023/07/25 05:03:56;;;;;;;;;;;;;;;22.96;52.90;100283.63;5096729;28;1086;-21
2023/07/25 05:06:22;;;;;;;;;;;;;;;23.08;53.74;100288.66;5095840;28;1043;-21
2023/07/25 05:08:47;;;;;;;;;;;;;;;23.94;53.94;100287.44;5091416;28;1149;-22
2023/07/25 05:11:13;;;;;;;;;;;;;;;25.95;47.93;100279.66;5094205;28;1272;-20
2023/07/25 05:13:39;;;;;;;;;;;;;;;26.60;46.60;100291.66;5097079;28;1177;-22
2023/07/25 05:16:05;;;;;;;;;;;;;;;23.88;50.91;100283.56;5096480;28;2268;-23
2023/07/25 05:18:30;;;;;;;;;;;;;;;23.59;51.71;100280.44;5088337;28;1901;-23
2023/07/25 05:20:56;;;;;;;;;;;;;;;23.53;52.53;100281.13;5096220;28;1344;-22
2023/07/25 05:23:21;;;;;;;;;;;;;;;23.79;51.78;100276.56;5096411;28;1046;-22
2023/07/25 05:25:47;;;;;;;;;;;;;;;23.79;52.38;100280.06;5096573;28;1015;-23
2023/07/25 05:28:12;;;;;;;;;;;;;;;23.95;52.00;100281.88;5095951;28;1161;-24
2023/07/25 05:30:38;;;;;;;;;;;;;;;24.60;51.22;100283.63;5095631;28;1434;-21
2023/07/25 05:33:03;;;;;;;;;;;;;;;25.92;46.40;100282.72;5096369;28;1148;-21
2023/07/25 05:35:29;;;;;;;;;;;;;;;23.99;49.86;100281.53;5096558;28;1111;-22
2023/07/25 05:37:54;;;;;;;;;;;;;;;24.51;49.85;100276.59;5096262;28;1084;-21
2023/07/25 05:40:20;;;;;;;;;;;;;;;24.24;50.89;100268.84;5096224;28;1992;-22
2023/07/25 05:42:46;;;;;;;;;;;;;;;23.80;51.48;100270.16;5096191;28;883;-24
2023/07/25 05:45:11;;;;;;;;;;;;;;;23.31;52.93;100266.53;5094277;28;2363;-21
2023/07/25 05:47:37;;;;;;;;;;;;;;;23.26;53.20;100274.25;5095483;28;1147;-21
2023/07/25 05:50:02;;;;;;;;;;;;;;;25.49;48.67;100273.34;5096007;28;1296;-24
2023/07/25 05:52:28;;;;;;;;;;;;;;;24.14;51.33;100274.41;5096189;28;1079;-22
2023/07/25 05:54:53;;;;;;;;;;;;;;;24.16;50.42;100269.72;5090827;28;967;-23
2023/07/25 05:57:19;;;;;;;;;;;;;;;24.55;50.11;100262.66;5095575;28;1121;-21
2023/07/25 05:59:45;;;;;;;;;;;;;;;24.57;50.60;100260.59;5095506;28;1918;-22
2023/07/25 06:02:11;;;;;;;;;;;;;;;23.77;51.60;100251.72;5095420;28;1277;-22
2023/07/25 06:04:37;;;;;;;;;;;;;;;23.72;51.99;100252.25;5096264;28;1105;-23
2023/07/25 06:07:02;;;;;;;;;;;;;;;24.39;51.18;100258.19;5095592;28;1011;-25
2023/07/25 06:09:28;;;;;;;;;;;;;;;23.82;52.20;100252.03;5095988;28;1073;-22
2023/07/25 06:11:55;;;;;;;;;;;;;;;24.55;50.39;100246.53;5095397;28;1253;-24
2023/07/25 06:14:21;;;;;;;;;;;;;;;24.37;50.36;100248.63;5095646;28;1158;-22
2023/07/25 06:16:46;;;;;;;;;;;;;;;23.34;51.60;100250.94;5095168;28;2213;-20
2023/07/25 06:19:12;;;;;;;;;;;;;;;24.28;50.67;100247.84;5094955;28;1909;-21
2023/07/25 06:21:37;;;;;;;;;;;;;;;24.56;49.84;100240.13;5095482;28;1019;-20
2023/07/25 06:24:03;;;;;;;;;;;;;;;24.83;49.35;100243.31;5077957;28;1209;-20
2023/07/25 06:26:28;;;;;;;;;;;;;;;24.81;49.14;100234.56;5095242;28;1062;-21
2023/07/25 06:28:54;;;;;;;;;;;;;;;23.84;50.51;100228.50;5086738;28;1070;-21
2023/07/25 06:31:20;;;;;;;;;;;;;;;23.39;51.33;100217.38;5084317;28;1213;-21
2023/07/25 06:33:45;;;;;;;;;;;;;;;24.54;51.73;100211.75;5096081;28;1046;-21
2023/07/25 06:36:11;;;;;;;;;;;;;;;24.88;51.51;100217.69;5095629;28;1234;-21
2023/07/25 06:38:36;;;;;;;;;;;;;;;24.90;50.25;100207.59;5095802;28;1901;-20
2023/07/25 06:41:02;;;;;;;;;;;;;;;24.62;50.84;100206.31;5097243;28;1162;-20
2023/07/25 06:43:27;;;;;;;;;;;;;;;24.78;49.70;100210.72;5099286;28;887;-20
2023/07/25 06:45:54;;;;;;;;;;;;;;;24.90;49.74;100205.78;5076037;28;2446;-20
2023/07/25 06:48:19;;;;;;;;;;;;;;;25.23;49.23;100199.25;5096959;28;1186;-21
2023/07/25 06:50:45;;;;;;;;;;;;;;;24.95;48.42;100197.16;5095167;28;971;-20
2023/07/25 06:53:11;;;;;;;;;;;;;;;24.63;49.42;100204.44;5098961;28;1193;-21
2023/07/25 06:55:37;;;;;;;;;;;;;;;24.54;49.72;100206.38;5098709;28;1047;-21
2023/07/25 06:58:03;;;;;;;;;;;;;;;23.36;51.04;100200.59;5098070;28;1137;-21
2023/07/25 07:00:28;;;;;;;;;;;;;;;22.86;53.92;100203.34;5097642;28;1977;-21
2023/07/25 07:02:54;;;;;;;;;;;;;;;24.02;53.26;100197.91;5096975;28;1035;-20
2023/07/25 07:05:19;;;;;;;;;;;;;;;23.89;52.50;100198.47;5092113;28;1197;-20
2023/07/25 07:07:45;;;;;;;;;;;;;;;23.73;53.35;100189.44;5099010;28;875;-20
2023/07/25 07:10:10;;;;;;;;;;;;;;;23.21;54.01;100189.72;5098709;28;1046;-21
2023/07/25 07:12:36;;;;;;;;;;;;;;;24.66;52.73;100196.00;5098926;28;1118;-20
2023/07/25 07:15:01;;;;;;;;;;;;;;;23.17;52.64;100187.56;5098690;28;1799;-21
2023/07/25 07:17:27;;;;;;;;;;;;;;;24.29;53.05;100193.91;5098977;28;1026;-21
2023/07/25 07:19:54;;;;;;;;;;;;;;;24.36;52.07;100201.28;5097863;28;1981;-22
2023/07/25 07:22:19;;;;;;;;;;;;;;;24.87;50.34;100199.88;5098205;28;1135;-21
2023/07/25 07:24:45;;;;;;;;;;;;;;;24.50;51.38;100200.50;5099347;28;991;-22
2023/07/25 07:27:10;;;;;;;;;;;;;;;25.15;49.35;100197.47;5098273;28;1117;-21
2023/07/25 07:29:36;;;;;;;;;;;;;;;23.95;50.43;100193.22;5097310;28;927;-21
2023/07/25 07:32:03;;;;;;;;;;;;;;;23.26;51.64;100191.06;5092432;28;877;-21
2023/07/25 07:34:28;;;;;;;;;;;;;;;23.18;52.92;100200.81;5098811;28;1028;-21
2023/07/25 07:36:54;;;;;;;;;;;;;;;23.24;54.41;100199.28;5098528;28;1066;-21
2023/07/25 07:39:19;;;;;;;;;;;;;;;23.32;53.54;100196.56;5098655;28;1898;-21
2023/07/25 07:41:45;;;;;;;;;;;;;;;23.46;51.94;100197.75;5093059;28;1350;-21
2023/07/25 07:44:10;;;;;;;;;;;;;;;23.10;54.00;100201.66;5098228;28;1046;-21
2023/07/25 07:46:36;;;;;;;;;;;;;;;22.68;54.63;100191.94;5098003;28;1803;-21
2023/07/25 07:49:01;;;;;;;;;;;;;;;22.70;53.96;100189.94;5098248;28;1169;-21
2023/07/25 07:51:27;;;;;;;;;;;;;;;22.29;55.29;100179.97;5098009;28;1027;-21
2023/07/25 07:53:52;;;;;;;;;;;;;;;22.55;56.13;100187.03;5098153;28;1034;-21
2023/07/25 07:56:18;;;;;;;;;;;;;;;23.30;54.21;100185.19;5080238;28;1118;-22
2023/07/25 07:58:44;;;;;;;;;;;;;;;22.68;54.14;100184.75;5098591;28;1905;-22
2023/07/25 08:01:16;;;;;;;;;;;;;;;22.47;55.95;100183.34;5098281;28;1093;-21
2023/07/25 08:03:42;;;;;;;;;;;;;;;23.73;53.24;100184.09;5098493;28;1038;-22
2023/07/25 08:06:07;;;;;;;;;;;;;;;22.89;53.34;100186.06;5096360;28;1078;-21
2023/07/25 08:08:33;;;;;;;;;;;;;;;23.35;54.03;100188.22;5092103;28;1115;-21
2023/07/25 08:10:58;;;;;;;;;;;;;;;23.24;52.71;100180.50;5097782;28;1031;-23
2023/07/25 08:13:24;;;;;;;;;;;;;;;23.58;52.42;100184.81;5098185;28;1094;-21
2023/07/25 08:15:49;;;;;;;;;;;;;;;23.49;51.61;100175.09;5098093;28;1914;-24
2023/07/25 08:18:15;;;;;;;;;;;;;;;23.75;50.95;100174.00;5097430;28;1122;-21
2023/07/25 08:20:40;;;;;;;;;;;;;;;22.83;53.36;100162.59;5098158;28;1902;-24
2023/07/25 08:23:06;;;;;;;;;;;;;;;22.58;54.33;100154.53;5097577;28;1014;-21
2023/07/25 08:25:31;;;;;;;;;;;;;;;23.56;52.31;100137.66;5097961;28;1069;-22
2023/07/25 08:27:57;;;;;;;;;;;;;;;22.90;53.57;100126.06;5098302;28;1143;-21
2023/07/25 08:30:22;;;;;;;;;;;;;;;24.39;52.57;100126.47;5097600;28;1098;-21
2023/07/25 08:32:48;;;;;;;;;;;;;;;23.90;50.27;100122.22;5097138;28;1054;-21
2023/07/25 08:35:14;;;;;;;;;;;;;;;24.17;50.25;100126.28;5097689;28;1272;-21
2023/07/25 08:37:39;;;;;;;;;;;;;;;23.07;51.45;100118.81;5097170;28;1006;-21
2023/07/25 08:40:05;;;;;;;;;;;;;;;22.80;53.82;100109.31;5097340;28;1964;-21
2023/07/25 08:42:31;;;;;;;;;;;;;;;22.86;53.87;100114.84;5096578;28;1192;-21
2023/07/25 08:44:57;;;;;;;;;;;;;;;22.92;53.49;100117.84;5096936;28;1446;-21
2023/07/25 08:47:23;;;;;;;;;;;;;;;22.47;54.42;100116.31;5069559;28;2591;-20
2023/07/25 08:49:48;;;;;;;;;;;;;;;22.39;54.82;100114.50;5078127;28;1078;-21
2023/07/25 08:52:15;;;;;;;;;;;;;;;22.46;55.09;100121.84;5078219;28;1201;-21
2023/07/25 08:54:41;;;;;;;;;;;;;;;23.10;54.19;100123.88;5077825;28;1003;-20
2023/07/25 08:57:06;;;;;;;;;;;;;;;24.09;51.65;100113.72;5095760;28;915;-21
2023/07/25 08:59:32;;;;;;;;;;;;;;;23.15;52.86;100111.75;5079181;28;1902;-20
2023/07/25 09:01:57;;;;;;;;;;;;;;;22.92;53.75;100118.66;5096968;28;1162;-21
2023/07/25 09:04:23;;;;;;;;;;;;;;;22.59;55.02;100122.19;5096062;28;1081;-20
2023/07/25 09:06:49;;;;;;;;;;;;;;;22.06;54.70;100135.03;5096974;28;1161;-21
2023/07/25 09:09:14;;;;;;;;;;;;;;;22.17;54.30;100117.81;5096653;28;1142;-21
2023/07/25 09:11:40;;;;;;;;;;;;;;;21.97;54.38;100113.59;5097018;28;1046;-24
2023/07/25 09:14:05;;;;;;;;;;;;;;;22.04;55.20;100119.13;5096999;28;1205;-21
2023/07/25 09:16:31;;;;;;;;;;;;;;;22.17;56.34;100112.47;5096777;28;2225;-21
2023/07/25 09:18:56;;;;;;;;;;;;;;;22.31;55.31;100106.44;5096171;28;1905;-22
2023/07/25 09:21:22;;;;;;;;;;;;;;;21.93;56.49;100112.25;5096604;28;1034;-22
2023/07/25 09:23:57;;;;;;;;;;;;;;;21.85;56.03;100106.88;5095182;28;1174;-21
2023/07/25 09:26:23;;;;;;;;;;;;;;;21.72;55.86;100108.13;5090580;28;1041;-22
2023/07/25 09:28:49;;;;;;;;;;;;;;;21.71;55.30;100103.78;5091437;28;1447;-21
2023/07/25 09:31:15;;;;;;;;;;;;;;;21.63;54.72;100109.09;5087717;28;1419;-22
2023/07/25 09:33:40;;;;;;;;;;;;;;;21.47;55.04;100105.34;5095725;28;1151;-21
2023/07/25 09:36:06;;;;;;;;;;;;;;;21.47;54.52;100093.84;5094889;28;1011;-21
2023/07/25 09:38:33;;;;;;;;;;;;;;;22.90;54.46;100093.03;5089173;28;1910;-25
2023/07/25 09:40:58;;;;;;;;;;;;;;;24.85;49.63;100097.84;5093518;28;1111;-21
2023/07/25 09:43:24;;;;;;;;;;;;;;;22.25;52.62;100096.41;5076380;28;1168;-20
2023/07/25 09:45:53;;;;;;;;;;;;;;;21.79;53.84;100100.31;5095489;28;2240;-21
2023/07/25 09:48:19;;;;;;;;;;;;;;;21.53;54.82;100096.72;5096095;28;1102;-22
2023/07/25 09:50:45;;;;;;;;;;;;;;;21.64;54.91;100105.41;5096128;28;1086;-22
2023/07/25 09:53:14;;;;;;;;;;;;;;;22.18;57.50;100109.63;5095824;28;1030;-22
2023/07/25 09:55:40;;;;;;;;;;;;;;;24.86;48.04;100112.97;5095984;28;1090;-21
2023/07/25 09:58:05;;;;;;;;;;;;;;;23.45;56.43;100107.50;5096101;28;1098;-22
2023/07/25 10:00:31;;;;;;;;;;;;;;;25.90;47.12;100102.38;5094523;28;1988;-21
2023/07/25 10:02:57;;;;;;;;;;;;;;;23.32;54.12;100096.47;5073021;28;1635;-23
2023/07/25 10:05:22;;;;;;;;;;;;;;;22.25;54.90;100093.72;5071382;28;1210;-21
2023/07/25 10:07:49;;;;;;;;;;;;;;;21.98;54.87;100076.94;5067786;28;1131;-20
2023/07/25 10:10:15;;;;;;;;;;;;;;;21.92;55.05;100073.06;5076756;28;1134;-21
2023/07/25 10:12:41;;;;;;;;;;;;;;;21.74;55.33;100071.31;5095332;28;1241;-21
2023/07/25 10:15:06;;;;;;;;;;;;;;;21.76;55.23;100073.84;5093837;28;2622;-21
2023/07/25 10:17:32;;;;;;;;;;;;;;;21.61;55.42;100062.94;5093193;28;1040;-21
2023/07/25 10:19:58;;;;;;;;;;;;;;;21.51;55.73;100066.59;5095053;28;1914;-21
2023/07/25 10:22:32;;;;;;;;;;;;;;;21.49;55.38;100052.53;5095160;28;1102;-22
2023/07/25 10:24:58;;;;;;;;;;;;;;;21.47;55.38;100049.16;5094938;28;1086;-22
2023/07/25 10:27:23;;;;;;;;;;;;;;;21.41;55.51;100041.78;5091672;28;1023;-22
2023/07/25 10:29:50;;;;;;;;;;;;;;;21.41;55.40;100044.47;5090199;28;1222;-21
2023/07/25 10:32:16;;;;;;;;;;;;;;;21.44;55.46;100048.66;5094497;28;1118;-23
2023/07/25 10:34:46;;;;;;;;;;;;;;;21.48;55.29;100039.31;5085485;28;1278;-22
2023/07/25 10:37:21;;;;;;;;;;;;;;;21.52;58.57;100041.50;5088335;28;1130;-21
2023/07/25 10:39:46;;;;;;;;;;;;;;;24.41;49.23;100059.94;5093815;28;1906;-21
2023/07/25 10:42:18;;;;;;;;;;;;;;;22.41;52.51;100060.72;5084613;28;2491;-22
2023/07/25 10:44:43;;;;;;;;;;;;;;;21.55;54.09;100059.06;5074081;28;1051;-22
2023/07/25 10:47:28;;;;;;;;;;;;;;;21.41;55.07;100048.00;5094619;28;1420;-20
2023/07/25 10:49:54;;;;;;;;;;;;;;;21.29;55.90;100055.47;5095027;28;1023;-21
2023/07/25 10:52:39;;;;;;;;;;;;;;;21.27;55.92;100051.28;5095651;28;1035;-22
2023/07/25 10:55:05;;;;;;;;;;;;;;;21.36;56.24;100052.97;5095663;28;1205;-21
2023/07/25 10:57:30;;;;;;;;;;;;;;;22.13;58.46;100055.69;5094869;28;1374;-20
2023/07/25 11:00:08;;;;;;;;;;;;;;;24.78;49.02;100059.25;5095488;28;1970;-22
2023/07/25 11:02:39;;;;;;;;;;;;;;;21.95;53.53;100055.84;5095523;28;1471;-21
2023/07/25 11:05:13;;;;;;;;;;;;;;;21.38;54.99;100047.47;5095905;28;1193;-22
2023/07/25 11:07:45;;;;;;;;;;;;;;;21.38;55.48;100040.28;5088642;28;1118;-22
2023/07/25 11:10:10;;;;;;;;;;;;;;;21.26;56.01;100033.53;5095809;28;1037;-22
2023/07/25 11:12:36;;;;;;;;;;;;;;;21.25;56.11;100029.19;5077726;28;1098;-21
2023/07/25 11:15:01;;;;;;;;;;;;;;;21.38;56.06;100026.91;5095987;28;1110;-21
2023/07/25 11:17:27;;;;;;;;;;;;;;;22.36;57.09;100023.72;5096151;28;1077;-22
2023/07/25 11:19:52;;;;;;;;;;;;;;;24.68;48.91;100025.41;5095079;28;1966;-23
2023/07/25 11:22:18;;;;;;;;;;;;;;;22.38;52.82;100016.34;5095464;28;1134;-23
2023/07/25 11:24:46;;;;;;;;;;;;;;;21.49;54.90;100009.72;5096297;28;1213;-22
2023/07/25 11:27:11;;;;;;;;;;;;;;;21.34;55.21;100008.66;5097100;28;1120;-21
2023/07/25 11:29:37;;;;;;;;;;;;;;;21.35;55.68;100003.16;5099379;28;1217;-23
2023/07/25 11:32:02;;;;;;;;;;;;;;;21.27;55.88;100003.13;5098543;28;1096;-22
2023/07/25 11:34:28;;;;;;;;;;;;;;;21.32;55.96;100006.13;5099121;28;1007;-21
2023/07/25 11:36:54;;;;;;;;;;;;;;;22.33;57.11;99994.59;5098676;28;1075;-21
2023/07/25 11:39:19;;;;;;;;;;;;;;;24.89;48.31;100004.97;5098642;28;1952;-25
2023/07/25 11:41:45;;;;;;;;;;;;;;;22.06;53.30;100001.97;5098758;28;1134;-22
2023/07/25 11:44:12;;;;;;;;;;;;;;;21.50;54.94;99994.50;5098343;28;1216;-22
2023/07/25 11:46:38;;;;;;;;;;;;;;;21.36;55.52;99998.63;5098807;28;1379;-21
2023/07/25 11:49:03;;;;;;;;;;;;;;;21.32;56.17;99997.28;5080977;28;1134;-22
2023/07/25 11:51:29;;;;;;;;;;;;;;;21.17;56.33;100000.56;5095127;28;1357;-22
2023/07/25 11:53:55;;;;;;;;;;;;;;;21.24;56.60;99996.25;5077481;28;1162;-23
2023/07/25 11:56:20;;;;;;;;;;;;;;;21.88;59.02;100000.28;5080623;28;1222;-22
2023/07/25 11:58:48;;;;;;;;;;;;;;;24.81;48.87;99992.47;5080270;28;1898;-20
2023/07/25 12:01:14;;;;;;;;;;;;;;;22.19;53.21;99993.41;5089554;28;1133;-21
2023/07/25 12:03:44;;;;;;;;;;;;;;;21.36;55.05;99985.25;5093470;28;1085;-21
2023/07/25 12:06:10;;;;;;;;;;;;;;;21.21;55.89;99987.72;5094910;28;1546;-21
2023/07/25 12:08:37;;;;;;;;;;;;;;;21.23;55.96;99989.25;5089247;28;1343;-21
2023/07/25 12:11:09;;;;;;;;;;;;;;;21.20;55.95;99984.22;5098431;28;1327;-21
2023/07/25 12:13:48;;;;;;;;;;;;;;;21.02;56.55;99992.34;5098079;28;1070;-21
2023/07/25 12:16:29;;;;;;;;;;;;;;;21.85;58.39;99989.06;5098324;28;1138;-24
2023/07/25 12:18:56;;;;;;;;;;;;;;;24.56;48.73;99990.06;5098191;28;1967;-21
2023/07/25 12:21:22;;;;;;;;;;;;;;;21.90;53.41;99984.06;5098082;28;911;-22
2023/07/25 12:23:49;;;;;;;;;;;;;;;21.26;55.14;99983.56;5098385;28;1142;-21
2023/07/25 12:26:20;;;;;;;;;;;;;;;21.01;55.07;99972.78;5079983;28;1298;-21
2023/07/25 12:28:45;;;;;;;;;;;;;;;20.82;55.25;99968.47;5097724;28;1038;-21
2023/07/25 12:31:11;;;;;;;;;;;;;;;20.88;55.61;99965.16;5098334;28;1157;-20
2023/07/25 12:33:37;;;;;;;;;;;;;;;20.89;55.94;99963.31;5097542;28;1082;-21
2023/07/25 12:36:03;;;;;;;;;;;;;;;23.80;49.95;99969.38;5097858;28;1118;-21
2023/07/25 12:38:28;;;;;;;;;;;;;;;22.61;51.53;99966.59;5097906;28;1149;-21
2023/07/25 12:40:54;;;;;;;;;;;;;;;21.68;54.26;99967.59;5097710;28;2020;-22